createdAt,value
2022-08-07T00:00:40.089Z,32.88
2022-08-07T00:02:37.252Z,32.86
2022-08-07T00:02:46.268Z,32.87
2022-08-07T00:03:37.887Z,32.87
2022-08-07T00:04:37.975Z,32.95
2022-08-07T00:05:37.964Z,32.88
2022-08-07T00:06:45.562Z,32.85
2022-08-07T00:07:40.832Z,32.88
2022-08-07T00:08:38.099Z,32.94
2022-08-07T00:09:38.228Z,32.95
2022-08-07T00:10:48.298Z,32.87
2022-08-07T00:11:47.997Z,32.88
2022-08-07T00:12:56.277Z,32.86
2022-08-07T00:13:40.589Z,32.92
2022-08-07T00:14:38.312Z,32.88
2022-08-07T00:15:46.899Z,32.90
2022-08-07T00:16:38.395Z,32.91
2022-08-07T00:17:38.425Z,32.92
2022-08-07T00:18:38.471Z,32.87
2022-08-07T00:20:01.234Z,32.90
2022-08-07T00:20:38.561Z,32.91
2022-08-07T00:21:56.126Z,32.88
2022-08-07T00:22:38.664Z,32.89
2022-08-07T00:23:40.155Z,32.93
2022-08-07T00:24:38.715Z,32.92
2022-08-07T00:25:41.488Z,32.95
2022-08-07T00:26:58.592Z,32.96
2022-08-07T00:27:51.762Z,32.95
2022-08-07T00:28:45.543Z,32.98
2022-08-07T00:29:38.960Z,33.01
2022-08-07T00:30:38.949Z,33.01
2022-08-07T00:31:42.095Z,32.95
2022-08-07T00:32:39.033Z,32.98
2022-08-07T00:33:39.114Z,32.97
2022-08-07T00:34:39.122Z,32.98
2022-08-07T00:35:39.191Z,32.96
2022-08-07T00:36:43.178Z,32.89
2022-08-07T00:37:41.447Z,32.90
2022-08-07T00:38:39.290Z,32.87
2022-08-07T00:39:45.157Z,32.90
2022-08-07T00:40:40.784Z,32.86
2022-08-07T00:41:45.357Z,32.91
2022-08-07T00:42:39.441Z,32.91
2022-08-07T00:43:59.606Z,32.92
2022-08-07T00:44:41.476Z,32.94
2022-08-07T00:45:39.533Z,32.95
2022-08-07T00:46:39.591Z,32.90
2022-08-07T00:48:08.949Z,32.91
2022-08-07T00:48:42.174Z,32.92
2022-08-07T00:50:21.291Z,32.91
2022-08-07T00:50:55.509Z,32.94
2022-08-07T00:51:57.127Z,32.98
2022-08-07T00:52:39.824Z,32.98
2022-08-07T00:53:55.327Z,32.97
2022-08-07T00:54:40.642Z,33.01
2022-08-07T00:56:02.272Z,33.00
2022-08-07T00:56:39.945Z,33.09
2022-08-07T00:57:44.387Z,32.97
2022-08-07T00:58:40.043Z,33.01
2022-08-07T00:59:40.049Z,33.01
2022-08-07T01:00:53.614Z,33.03
2022-08-07T01:01:44.543Z,33.04
2022-08-07T01:02:40.192Z,33.08
2022-08-07T01:03:56.411Z,33.08
2022-08-07T01:04:43.370Z,33.05
2022-08-07T01:05:40.274Z,33.07
2022-08-07T01:06:40.312Z,33.05
2022-08-07T01:07:40.339Z,33.07
2022-08-07T01:08:43.011Z,33.08
2022-08-07T01:10:06.016Z,33.09
2022-08-07T01:10:40.456Z,33.08
2022-08-07T01:12:08.933Z,33.10
2022-08-07T01:12:53.118Z,33.13
2022-08-07T01:13:40.592Z,33.16
2022-08-07T01:14:40.606Z,33.16
2022-08-07T01:16:01.258Z,33.10
2022-08-07T01:16:42.938Z,33.11
2022-08-07T01:17:40.702Z,33.20
2022-08-07T01:18:40.709Z,33.14
2022-08-07T01:19:42.038Z,33.18
2022-08-07T01:20:43.283Z,33.16
2022-08-07T01:21:40.820Z,33.16
2022-08-07T01:22:46.752Z,33.17
2022-08-07T01:23:43.808Z,33.18
2022-08-07T01:24:40.920Z,33.16
2022-08-07T01:25:55.654Z,33.21
2022-08-07T01:26:41.004Z,33.11
2022-08-07T01:27:49.997Z,33.22
2022-08-07T01:28:41.183Z,33.25
2022-08-07T01:29:41.114Z,33.25
2022-08-07T01:30:41.184Z,33.24
2022-08-07T01:31:42.465Z,33.20
2022-08-07T01:32:41.288Z,33.27
2022-08-07T01:33:55.816Z,33.23
2022-08-07T01:34:41.331Z,33.28
2022-08-07T01:35:53.558Z,33.29
2022-08-07T01:36:41.399Z,33.28
2022-08-07T01:37:41.433Z,33.25
2022-08-07T01:38:41.489Z,33.26
2022-08-07T01:39:46.727Z,33.25
2022-08-07T01:40:41.585Z,33.31
2022-08-07T01:42:07.088Z,33.25
2022-08-07T01:42:58.751Z,33.26
2022-08-07T01:43:41.655Z,33.33
2022-08-07T01:44:41.679Z,33.33
2022-08-07T01:45:41.725Z,33.35
2022-08-07T01:46:41.758Z,33.35
2022-08-07T01:48:17.538Z,33.32
2022-08-07T01:48:41.886Z,33.38
2022-08-07T01:49:41.870Z,33.37
2022-08-07T01:50:43.071Z,33.39
2022-08-07T01:52:04.299Z,33.39
2022-08-07T01:52:49.686Z,33.43
2022-08-07T01:54:12.373Z,33.40
2022-08-07T01:54:42.094Z,33.41
2022-08-07T01:55:42.127Z,33.44
2022-08-07T01:56:42.182Z,33.43
2022-08-07T01:58:06.847Z,33.43
2022-08-07T01:58:45.232Z,33.42
2022-08-07T01:59:43.939Z,33.41
2022-08-07T02:00:49.361Z,33.46
2022-08-07T02:02:00.205Z,33.47
2022-08-07T02:03:18.204Z,33.47
2022-08-07T02:03:48.775Z,33.47
2022-08-07T02:04:52.531Z,33.48
2022-08-07T02:05:47.853Z,33.47
2022-08-07T02:06:42.579Z,33.50
2022-08-07T02:07:50.140Z,33.47
2022-08-07T02:08:42.658Z,33.48
2022-08-07T02:09:52.757Z,33.48
2022-08-07T02:10:42.713Z,33.50
2022-08-07T02:12:02.705Z,33.51
2022-08-07T02:12:42.846Z,33.52
2022-08-07T02:13:57.197Z,33.48
2022-08-07T02:14:42.860Z,33.50
2022-08-07T02:15:42.890Z,33.49
2022-08-07T02:16:42.963Z,33.48
2022-08-07T02:17:49.585Z,33.51
2022-08-07T02:18:47.044Z,33.45
2022-08-07T02:20:04.740Z,33.46
2022-08-07T02:20:43.073Z,33.50
2022-08-07T02:21:55.802Z,33.49
2022-08-07T02:22:43.772Z,33.45
2022-08-07T02:23:43.178Z,33.44
2022-08-07T02:24:44.677Z,33.43
2022-08-07T02:26:30.621Z,33.47
2022-08-07T02:26:43.284Z,33.46
2022-08-07T02:27:43.323Z,33.43
2022-08-07T02:28:43.352Z,33.48
2022-08-07T02:29:48.888Z,33.33
2022-08-07T02:30:43.414Z,33.46
2022-08-07T02:31:43.452Z,33.50
2022-08-07T02:33:03.787Z,33.51
2022-08-07T02:34:02.818Z,33.47
2022-08-07T02:34:48.909Z,33.52
2022-08-07T02:36:27.019Z,33.49
2022-08-07T02:36:43.655Z,33.48
2022-08-07T02:37:43.841Z,33.47
2022-08-07T02:38:50.569Z,33.50
2022-08-07T02:40:11.662Z,33.49
2022-08-07T02:40:43.861Z,33.52
2022-08-07T02:41:50.559Z,33.54
2022-08-07T02:42:43.893Z,33.54
2022-08-07T02:43:43.936Z,33.50
2022-08-07T02:44:47.921Z,33.50
2022-08-07T02:46:00.268Z,33.48
2022-08-07T02:46:46.907Z,33.54
2022-08-07T02:47:45.591Z,33.58
2022-08-07T02:48:54.628Z,33.47
2022-08-07T02:49:58.466Z,33.51
2022-08-07T02:50:44.182Z,33.54
2022-08-07T02:51:52.010Z,33.52
2022-08-07T02:52:48.836Z,33.54
2022-08-07T02:53:44.286Z,33.54
2022-08-07T02:54:44.289Z,33.52
2022-08-07T02:56:03.644Z,33.59
2022-08-07T02:56:44.378Z,33.54
2022-08-07T02:57:44.397Z,33.56
2022-08-07T02:58:47.415Z,33.58
2022-08-07T02:59:44.463Z,33.58
2022-08-07T03:00:47.425Z,33.61
2022-08-07T03:01:47.260Z,33.61
2022-08-07T03:02:55.081Z,33.61
2022-08-07T03:03:50.340Z,33.62
2022-08-07T03:04:44.646Z,33.61
2022-08-07T03:05:44.679Z,33.64
2022-08-07T03:06:46.092Z,33.64
2022-08-07T03:08:06.964Z,33.64
2022-08-07T03:08:44.776Z,33.67
2022-08-07T03:09:48.244Z,33.66
2022-08-07T03:10:46.690Z,33.66
2022-08-07T03:11:52.705Z,33.66
2022-08-07T03:12:44.937Z,33.66
2022-08-07T03:13:49.818Z,33.66
2022-08-07T03:14:48.429Z,33.62
2022-08-07T03:15:55.835Z,33.63
2022-08-07T03:16:45.053Z,33.63
2022-08-07T03:17:53.024Z,33.67
2022-08-07T03:18:45.124Z,33.69
2022-08-07T03:19:45.154Z,33.66
2022-08-07T03:20:45.184Z,33.69
2022-08-07T03:21:50.318Z,33.70
2022-08-07T03:22:49.958Z,33.74
2022-08-07T03:24:21.130Z,33.70
2022-08-07T03:24:45.345Z,33.72
2022-08-07T03:25:45.378Z,33.74
2022-08-07T03:26:58.404Z,33.76
2022-08-07T03:28:09.086Z,33.77
2022-08-07T03:28:45.506Z,33.79
2022-08-07T03:29:49.300Z,33.76
2022-08-07T03:30:45.545Z,33.73
2022-08-07T03:31:46.362Z,33.78
2022-08-07T03:32:48.955Z,33.77
2022-08-07T03:33:45.680Z,33.79
2022-08-07T03:34:47.548Z,33.78
2022-08-07T03:35:50.631Z,33.78
2022-08-07T03:36:45.809Z,33.79
2022-08-07T03:37:53.305Z,33.77
2022-08-07T03:38:45.874Z,33.80
2022-08-07T03:39:59.194Z,33.80
2022-08-07T03:40:46.060Z,33.89
2022-08-07T03:41:47.688Z,33.86
2022-08-07T03:42:46.027Z,33.87
2022-08-07T03:43:57.251Z,33.84
2022-08-07T03:44:47.203Z,33.85
2022-08-07T03:45:47.476Z,33.84
2022-08-07T03:47:11.354Z,33.83
2022-08-07T03:47:51.141Z,33.89
2022-08-07T03:49:02.645Z,33.86
2022-08-07T03:49:47.719Z,33.79
2022-08-07T03:50:56.177Z,33.86
2022-08-07T03:51:47.321Z,33.86
2022-08-07T03:52:46.399Z,33.83
2022-08-07T03:54:02.094Z,33.83
2022-08-07T03:54:54.536Z,33.83
2022-08-07T03:55:57.854Z,33.83
2022-08-07T03:57:03.755Z,33.82
2022-08-07T03:59:05.064Z,33.81
2022-08-07T03:59:15.192Z,33.79
2022-08-07T04:00:02.689Z,33.89
2022-08-07T04:00:54.014Z,33.86
2022-08-07T04:01:46.776Z,33.84
2022-08-07T04:02:47.405Z,33.82
2022-08-07T04:03:53.486Z,33.82
2022-08-07T04:04:46.825Z,33.83
2022-08-07T04:05:46.862Z,33.80
2022-08-07T04:06:50.973Z,33.85
2022-08-07T04:07:47.671Z,33.84
2022-08-07T04:08:46.999Z,33.85
2022-08-07T04:09:50.191Z,33.84
2022-08-07T04:10:54.339Z,33.84
2022-08-07T04:12:28.999Z,33.83
2022-08-07T04:12:47.271Z,33.99
2022-08-07T04:14:09.537Z,33.94
2022-08-07T04:14:47.857Z,33.92
2022-08-07T04:15:49.095Z,33.88
2022-08-07T04:16:58.320Z,33.88
2022-08-07T04:18:58.536Z,33.89
2022-08-07T04:19:12.638Z,33.90
2022-08-07T04:19:52.667Z,33.94
2022-08-07T04:20:54.987Z,33.89
2022-08-07T04:21:48.006Z,33.92
2022-08-07T04:22:53.404Z,33.89
2022-08-07T04:24:07.214Z,33.91
2022-08-07T04:24:47.599Z,33.93
2022-08-07T04:25:47.590Z,33.94
2022-08-07T04:26:47.652Z,33.92
2022-08-07T04:28:00.475Z,33.92
2022-08-07T04:28:47.706Z,33.90
2022-08-07T04:30:02.381Z,33.95
2022-08-07T04:30:55.572Z,33.93
2022-08-07T04:32:02.898Z,33.95
2022-08-07T04:32:48.124Z,33.95
2022-08-07T04:33:55.092Z,33.93
2022-08-07T04:34:47.954Z,33.94
2022-08-07T04:35:50.612Z,33.94
2022-08-07T04:36:49.435Z,33.92
2022-08-07T04:38:03.023Z,33.96
2022-08-07T04:38:48.103Z,33.99
2022-08-07T04:39:48.164Z,33.97
2022-08-07T04:40:52.429Z,33.96
2022-08-07T04:41:50.230Z,33.96
2022-08-07T04:42:52.375Z,33.98
2022-08-07T04:44:12.602Z,34.00
2022-08-07T04:44:54.468Z,34.01
2022-08-07T04:46:01.064Z,33.99
2022-08-07T04:47:04.232Z,34.00
2022-08-07T04:47:58.877Z,34.02
2022-08-07T04:48:50.966Z,34.02
2022-08-07T04:49:57.842Z,34.00
2022-08-07T04:50:52.864Z,34.03
2022-08-07T04:51:48.597Z,34.03
2022-08-07T04:52:52.101Z,34.04
2022-08-07T04:54:05.501Z,34.05
2022-08-07T04:54:50.671Z,34.03
2022-08-07T04:58:24.119Z,34.06
2022-08-07T04:59:15.949Z,34.06
2022-08-07T05:00:12.489Z,34.32
2022-08-07T05:00:30.487Z,34.40
2022-08-07T05:00:44.514Z,34.46
2022-08-07T05:01:44.482Z,34.29
2022-08-07T05:02:44.496Z,34.26
2022-08-07T05:04:06.406Z,34.23
2022-08-07T05:04:50.143Z,34.19
2022-08-07T05:05:53.648Z,34.19
2022-08-07T05:06:51.748Z,34.18
2022-08-07T05:07:48.478Z,34.08
2022-08-07T05:08:58.995Z,34.17
2022-08-07T05:09:46.737Z,34.14
2022-08-07T05:10:44.768Z,34.14
2022-08-07T05:11:57.019Z,34.09
2022-08-07T05:12:51.542Z,34.17
2022-08-07T05:14:53.679Z,34.20
2022-08-07T05:15:04.730Z,34.19
2022-08-07T05:15:44.985Z,34.25
2022-08-07T05:16:45.375Z,34.21
2022-08-07T05:17:50.177Z,34.24
2022-08-07T05:18:45.097Z,34.26
2022-08-07T05:19:45.499Z,34.23
2022-08-07T05:20:45.177Z,34.25
2022-08-07T05:21:59.365Z,34.26
2022-08-07T05:22:45.262Z,34.24
2022-08-07T05:23:45.269Z,34.20
2022-08-07T05:24:45.318Z,34.15
2022-08-07T05:26:09.942Z,34.18
2022-08-07T05:26:46.243Z,34.20
2022-08-07T05:28:02.575Z,34.26
2022-08-07T05:28:46.547Z,34.29
2022-08-07T05:29:50.902Z,34.25
2022-08-07T05:30:47.108Z,34.25
2022-08-07T05:31:51.172Z,34.30
2022-08-07T05:32:45.613Z,34.25
2022-08-07T05:34:01.266Z,34.26
2022-08-07T05:34:45.657Z,34.25
2022-08-07T05:35:45.678Z,34.27
2022-08-07T05:36:49.108Z,34.22
2022-08-07T05:37:45.763Z,34.26
2022-08-07T05:39:00.803Z,34.34
2022-08-07T05:40:13.567Z,34.28
2022-08-07T05:40:51.353Z,34.30
2022-08-07T05:42:01.650Z,34.25
2022-08-07T05:42:55.550Z,34.29
2022-08-07T05:44:08.000Z,34.17
2022-08-07T05:44:52.794Z,34.35
2022-08-07T05:45:48.129Z,34.30
2022-08-07T05:46:46.134Z,34.32
2022-08-07T05:48:02.682Z,34.34
2022-08-07T05:48:58.267Z,34.33
2022-08-07T05:49:46.272Z,34.37
2022-08-07T05:50:46.303Z,34.34
2022-08-07T05:51:47.085Z,34.24
2022-08-07T05:52:46.396Z,34.29
2022-08-07T05:54:12.628Z,34.28
2022-08-07T05:54:55.613Z,34.33
2022-08-07T05:56:03.018Z,34.36
2022-08-07T05:56:46.578Z,34.33
2022-08-07T05:57:46.617Z,34.38
2022-08-07T05:58:49.221Z,34.42
2022-08-07T05:59:55.809Z,34.40
2022-08-07T06:00:46.760Z,34.42
2022-08-07T06:01:46.809Z,34.29
2022-08-07T06:02:46.989Z,34.46
2022-08-07T06:03:54.005Z,34.43
2022-08-07T06:04:46.881Z,34.45
2022-08-07T06:05:49.040Z,34.48
2022-08-07T06:06:47.605Z,34.51
2022-08-07T06:08:14.885Z,34.47
2022-08-07T06:08:47.049Z,34.45
2022-08-07T06:10:05.035Z,34.37
2022-08-07T06:10:47.122Z,34.49
2022-08-07T06:11:47.131Z,34.42
2022-08-07T06:12:47.159Z,34.49
2022-08-07T06:14:12.620Z,34.34
2022-08-07T06:14:49.297Z,34.27
2022-08-07T06:15:47.273Z,34.47
2022-08-07T06:16:50.690Z,34.35
2022-08-07T06:17:53.494Z,34.41
2022-08-07T06:18:55.667Z,34.29
2022-08-07T06:20:03.341Z,34.33
2022-08-07T06:20:50.746Z,34.27
2022-08-07T06:22:23.887Z,34.12
2022-08-07T06:22:50.599Z,34.40
2022-08-07T06:24:46.327Z,34.35
2022-08-07T06:25:01.130Z,34.31
2022-08-07T06:25:54.687Z,34.24
2022-08-07T06:26:47.812Z,34.27
2022-08-07T06:28:01.467Z,34.30
2022-08-07T06:28:47.884Z,34.32
2022-08-07T06:29:47.935Z,34.34
2022-08-07T06:30:50.684Z,34.39
2022-08-07T06:31:50.393Z,34.47
2022-08-07T06:32:48.088Z,34.50
2022-08-07T06:33:48.142Z,34.51
2022-08-07T06:34:48.170Z,34.52
2022-08-07T06:36:12.338Z,34.51
2022-08-07T06:36:48.294Z,34.48
2022-08-07T06:37:48.327Z,34.48
2022-08-07T06:38:51.620Z,34.45
2022-08-07T06:40:12.955Z,34.40
2022-08-07T06:40:48.475Z,34.40
2022-08-07T06:42:02.351Z,34.37
2022-08-07T06:42:48.506Z,34.36
2022-08-07T06:43:59.283Z,34.35
2022-08-07T06:44:51.311Z,34.36
2022-08-07T06:45:48.619Z,34.36
2022-08-07T06:46:53.260Z,34.36
2022-08-07T06:47:58.719Z,34.37
2022-08-07T06:48:48.767Z,34.38
2022-08-07T06:49:52.377Z,34.33
2022-08-07T06:50:48.845Z,34.27
2022-08-07T06:51:50.104Z,34.33
2022-08-07T06:52:48.885Z,34.33
2022-08-07T06:55:27.692Z,34.34
2022-08-07T06:55:53.908Z,34.32
2022-08-07T06:56:07.333Z,34.44
2022-08-07T06:56:50.586Z,34.48
2022-08-07T06:57:50.958Z,34.38
2022-08-07T07:00:11.857Z,34.35
2022-08-07T07:00:20.015Z,34.35
2022-08-07T07:00:52.965Z,34.44
2022-08-07T07:01:50.897Z,34.38
2022-08-07T07:02:54.235Z,34.34
2022-08-07T07:03:55.031Z,34.32
2022-08-07T07:04:54.909Z,34.29
2022-08-07T07:06:03.252Z,34.30
2022-08-07T07:07:00.199Z,34.32
2022-08-07T07:07:59.090Z,34.29
2022-08-07T07:08:50.101Z,34.31
2022-08-07T07:09:50.856Z,34.30
2022-08-07T07:10:56.511Z,34.30
2022-08-07T07:12:09.622Z,34.28
2022-08-07T07:12:53.535Z,34.32
2022-08-07T07:13:58.424Z,34.32
2022-08-07T07:14:50.380Z,34.33
2022-08-07T07:15:51.542Z,34.30
2022-08-07T07:16:51.004Z,34.26
2022-08-07T07:17:52.183Z,34.28
2022-08-07T07:18:50.544Z,34.30
2022-08-07T07:19:56.990Z,34.30
2022-08-07T07:20:50.624Z,34.35
2022-08-07T07:22:04.671Z,34.33
2022-08-07T07:24:06.193Z,34.35
2022-08-07T07:24:16.644Z,34.34
2022-08-07T07:25:02.592Z,34.46
2022-08-07T07:26:34.227Z,34.41
2022-08-07T07:26:52.299Z,34.40
2022-08-07T07:27:58.549Z,34.38
2022-08-07T07:29:39.147Z,34.33
2022-08-07T07:30:09.917Z,34.40
2022-08-07T07:30:51.028Z,34.39
2022-08-07T07:31:51.038Z,34.35
2022-08-07T07:32:51.105Z,34.37
2022-08-07T07:33:56.420Z,34.31
2022-08-07T07:34:51.193Z,34.33
2022-08-07T07:36:04.629Z,34.29
2022-08-07T07:36:52.692Z,34.17
2022-08-07T07:38:02.483Z,34.10
2022-08-07T07:38:51.350Z,34.15
2022-08-07T07:39:54.444Z,34.05
2022-08-07T07:40:51.556Z,34.13
2022-08-07T07:42:12.879Z,34.09
2022-08-07T07:42:54.185Z,33.92
2022-08-07T07:44:17.080Z,33.60
2022-08-07T07:44:51.602Z,33.91
2022-08-07T07:46:36.835Z,33.96
2022-08-07T07:47:12.102Z,33.73
2022-08-07T07:47:53.153Z,33.84
2022-08-07T07:48:51.772Z,33.85
2022-08-07T07:50:36.532Z,33.85
2022-08-07T07:50:51.859Z,33.87
2022-08-07T07:51:58.433Z,33.64
2022-08-07T07:52:51.935Z,33.70
2022-08-07T07:53:52.734Z,33.75
2022-08-07T07:54:52.205Z,33.74
2022-08-07T07:55:54.716Z,33.80
2022-08-07T07:56:52.100Z,33.88
2022-08-07T07:57:54.104Z,33.84
2022-08-07T07:58:52.209Z,33.80
2022-08-07T07:59:53.670Z,33.91
2022-08-07T08:00:54.026Z,33.90
2022-08-07T08:02:05.105Z,33.91
2022-08-07T08:03:05.080Z,33.95
2022-08-07T08:04:06.301Z,33.89
2022-08-07T08:04:52.450Z,33.74
2022-08-07T08:05:55.035Z,33.76
2022-08-07T08:06:53.219Z,33.84
2022-08-07T08:08:00.714Z,33.88
2022-08-07T08:08:52.588Z,33.85
2022-08-07T08:10:04.816Z,33.86
2022-08-07T08:10:52.657Z,33.89
2022-08-07T08:12:02.886Z,33.90
2022-08-07T08:12:59.789Z,33.86
2022-08-07T08:13:54.877Z,33.88
2022-08-07T08:14:52.805Z,33.92
2022-08-07T08:15:58.526Z,33.93
2022-08-07T08:16:52.893Z,33.96
2022-08-07T08:17:57.872Z,33.99
2022-08-07T08:18:53.007Z,34.02
2022-08-07T08:20:17.056Z,34.00
2022-08-07T08:20:54.065Z,34.04
2022-08-07T08:21:55.758Z,34.03
2022-08-07T08:22:56.141Z,34.06
2022-08-07T08:23:53.189Z,34.02
2022-08-07T08:24:59.287Z,34.09
2022-08-07T08:25:56.120Z,34.10
2022-08-07T08:26:53.349Z,34.07
2022-08-07T08:27:57.273Z,34.08
2022-08-07T08:28:53.397Z,34.10
2022-08-07T08:29:54.464Z,34.05
2022-08-07T08:30:55.684Z,34.07
2022-08-07T08:32:16.944Z,33.97
2022-08-07T08:32:53.567Z,33.85
2022-08-07T08:33:55.808Z,33.94
2022-08-07T08:34:53.666Z,33.90
2022-08-07T08:35:53.751Z,33.92
2022-08-07T08:36:57.765Z,33.63
2022-08-07T08:38:00.485Z,33.63
2022-08-07T08:38:53.870Z,33.78
2022-08-07T08:39:54.876Z,33.74
2022-08-07T08:40:53.988Z,33.80
2022-08-07T08:41:57.403Z,33.26
2022-08-07T08:42:54.047Z,33.02
2022-08-07T08:43:56.108Z,32.79
2022-08-07T08:44:54.152Z,32.76
2022-08-07T08:45:58.920Z,33.10
2022-08-07T08:46:54.249Z,33.19
2022-08-07T08:47:54.858Z,32.97
2022-08-07T08:48:54.291Z,32.74
2022-08-07T08:50:05.067Z,32.64
2022-08-07T08:50:54.371Z,32.20
2022-08-07T08:52:14.525Z,31.69
2022-08-07T08:52:54.792Z,31.69
2022-08-07T08:53:54.449Z,32.15
2022-08-07T08:54:54.522Z,32.16
2022-08-07T08:55:58.543Z,32.41
2022-08-07T08:56:54.655Z,32.50
2022-08-07T08:57:54.584Z,32.61
2022-08-07T08:58:54.897Z,32.68
2022-08-07T08:59:54.697Z,32.71
2022-08-07T09:00:54.732Z,32.72
2022-08-07T09:01:58.451Z,32.77
2022-08-07T09:02:54.854Z,32.72
2022-08-07T09:03:55.519Z,32.85
2022-08-07T09:04:54.856Z,32.90
2022-08-07T09:05:54.903Z,32.86
2022-08-07T09:06:54.923Z,32.82
2022-08-07T09:07:58.237Z,32.77
2022-08-07T09:08:54.991Z,32.86
2022-08-07T09:09:56.508Z,32.86
2022-08-07T09:10:55.080Z,32.93
2022-08-07T09:12:02.768Z,32.88
2022-08-07T09:12:55.160Z,32.82
2022-08-07T09:13:55.177Z,32.94
2022-08-07T09:14:58.919Z,32.92
2022-08-07T09:16:22.032Z,32.93
2022-08-07T09:16:55.326Z,32.95
2022-08-07T09:17:59.586Z,32.98
2022-08-07T09:18:58.533Z,32.79
2022-08-07T09:19:55.598Z,33.00
2022-08-07T09:20:58.525Z,32.96
2022-08-07T09:22:23.157Z,33.01
2022-08-07T09:24:59.381Z,33.00
2022-08-07T09:25:14.491Z,33.19
2022-08-07T09:25:53.498Z,33.25
2022-08-07T09:26:47.935Z,33.14
2022-08-07T09:28:00.297Z,32.57
2022-08-07T09:30:05.651Z,32.10
2022-08-07T09:30:12.451Z,32.05
2022-08-07T09:30:46.262Z,32.26
2022-08-07T09:31:49.377Z,32.23
2022-08-07T09:32:44.813Z,32.06
2022-08-07T09:33:56.839Z,32.28
2022-08-07T09:34:44.959Z,32.46
2022-08-07T09:36:03.370Z,31.81
2022-08-07T09:36:49.510Z,31.32
2022-08-07T09:37:53.445Z,31.06
2022-08-07T09:38:50.225Z,30.71
2022-08-07T09:39:53.833Z,30.60
2022-08-07T09:40:45.162Z,31.15
2022-08-07T09:42:03.117Z,31.49
2022-08-07T09:42:45.577Z,31.26
2022-08-07T09:44:06.132Z,31.35
2022-08-07T09:44:58.325Z,31.73
2022-08-07T09:47:51.424Z,31.50
2022-08-07T09:48:11.781Z,31.81
2022-08-07T09:48:20.085Z,32.20
2022-08-07T09:50:01.995Z,32.21
2022-08-07T09:50:18.528Z,32.21
2022-08-07T09:52:10.377Z,32.26
2022-08-07T09:52:37.822Z,32.32
2022-08-07T09:53:16.211Z,32.29
2022-08-07T09:54:16.538Z,32.29
2022-08-07T09:55:17.246Z,32.00
2022-08-07T09:56:19.961Z,31.97
2022-08-07T09:57:16.386Z,30.90
2022-08-07T09:58:16.488Z,31.34
2022-08-07T09:59:17.506Z,31.30
2022-08-07T10:00:16.568Z,31.36
2022-08-07T10:01:52.349Z,31.30
2022-08-07T10:02:16.653Z,31.12
2022-08-07T10:04:04.705Z,31.04
2022-08-07T10:04:16.791Z,30.79
2022-08-07T10:05:16.828Z,31.08
2022-08-07T10:06:17.829Z,31.10
2022-08-07T10:07:25.989Z,31.12
2022-08-07T10:08:16.905Z,30.04
2022-08-07T10:09:16.966Z,30.42
2022-08-07T10:10:21.732Z,30.20
2022-08-07T10:12:00.167Z,30.43
2022-08-07T10:12:21.878Z,30.64
2022-08-07T10:13:54.759Z,30.74
2022-08-07T10:14:23.046Z,30.80
2022-08-07T10:15:18.609Z,30.94
2022-08-07T10:16:19.180Z,31.40
2022-08-07T10:17:17.279Z,31.28
2022-08-07T10:18:17.323Z,31.57
2022-08-07T10:19:17.343Z,31.33
2022-08-07T10:20:21.850Z,31.19
2022-08-07T10:21:24.654Z,31.04
2022-08-07T10:22:17.460Z,31.13
2022-08-07T10:23:17.493Z,31.08
2022-08-07T10:24:21.430Z,31.17
2022-08-07T10:25:22.591Z,30.14
2022-08-07T10:26:17.677Z,30.25
2022-08-07T10:27:17.694Z,30.05
2022-08-07T10:28:17.704Z,30.40
2022-08-07T10:29:17.746Z,30.91
2022-08-07T10:30:17.776Z,30.69
2022-08-07T10:31:17.829Z,30.45
2022-08-07T10:32:36.876Z,30.71
2022-08-07T10:33:17.936Z,30.46
2022-08-07T10:34:27.362Z,30.56
2022-08-07T10:35:20.365Z,30.49
2022-08-07T10:36:18.054Z,30.73
2022-08-07T10:37:18.094Z,30.82
2022-08-07T10:38:35.463Z,30.93
2022-08-07T10:39:18.179Z,31.06
2022-08-07T10:40:18.273Z,31.04
2022-08-07T10:41:53.052Z,31.05
2022-08-07T10:42:21.443Z,30.77
2022-08-07T10:43:19.348Z,30.82
2022-08-07T10:44:19.493Z,30.88
2022-08-07T10:45:19.347Z,30.96
2022-08-07T10:46:18.478Z,30.94
2022-08-07T10:47:18.543Z,30.88
2022-08-07T10:48:18.612Z,30.81
2022-08-07T10:49:45.375Z,30.60
2022-08-07T10:50:18.940Z,30.69
2022-08-07T10:51:39.146Z,30.69
2022-08-07T10:52:18.776Z,30.74
2022-08-07T10:53:21.393Z,30.52
2022-08-07T10:54:18.870Z,29.55
2022-08-07T10:55:32.642Z,29.50
2022-08-07T10:56:21.040Z,29.18
2022-08-07T10:57:22.179Z,29.94
2022-08-07T10:58:25.047Z,29.51
2022-08-07T10:59:21.581Z,30.19
2022-08-07T11:00:39.251Z,30.47
2022-08-07T11:01:19.247Z,30.20
2022-08-07T11:02:33.375Z,30.33
2022-08-07T11:03:19.246Z,30.55
2022-08-07T11:04:31.854Z,29.68
2022-08-07T11:05:19.325Z,29.57
2022-08-07T11:06:21.834Z,29.58
2022-08-07T11:07:56.514Z,29.13
2022-08-07T11:08:19.470Z,29.61
2022-08-07T11:10:08.004Z,29.74
2022-08-07T11:10:19.527Z,30.05
2022-08-07T11:11:20.980Z,30.27
2022-08-07T11:12:31.504Z,29.60
2022-08-07T11:14:42.472Z,30.12
2022-08-07T11:15:01.347Z,29.90
2022-08-07T11:15:19.752Z,29.41
2022-08-07T11:16:19.816Z,29.53
2022-08-07T11:17:23.197Z,28.83
2022-08-07T11:18:19.905Z,29.37
2022-08-07T11:19:21.799Z,29.84
2022-08-07T11:20:19.976Z,29.48
2022-08-07T11:21:20.020Z,30.07
2022-08-07T11:22:32.522Z,30.04
2022-08-07T11:23:20.769Z,30.23
2022-08-07T11:24:20.154Z,30.24
2022-08-07T11:25:20.300Z,30.28
2022-08-07T11:26:20.238Z,30.30
2022-08-07T11:27:20.636Z,30.49
2022-08-07T11:28:20.336Z,29.75
2022-08-07T11:29:40.808Z,29.98
2022-08-07T11:30:20.433Z,29.57
2022-08-07T11:31:20.440Z,29.58
2022-08-07T11:32:25.760Z,29.84
2022-08-07T11:33:48.775Z,29.76
2022-08-07T11:34:20.594Z,29.53
2022-08-07T11:35:25.175Z,29.46
2022-08-07T11:36:20.678Z,29.16
2022-08-07T11:37:24.237Z,29.41
2022-08-07T11:38:21.286Z,29.16
2022-08-07T11:39:20.902Z,29.43
2022-08-07T11:40:20.926Z,29.21
2022-08-07T11:41:31.091Z,29.68
2022-08-07T11:42:21.016Z,29.78
2022-08-07T11:43:29.638Z,29.98
2022-08-07T11:44:21.001Z,29.92
2022-08-07T11:45:23.627Z,29.72
2022-08-07T11:46:21.095Z,30.05
2022-08-07T11:47:21.185Z,30.09
2022-08-07T11:48:29.394Z,30.23
2022-08-07T11:49:50.750Z,30.32
2022-08-07T11:50:35.471Z,30.45
2022-08-07T11:51:41.747Z,29.75
2022-08-07T11:52:28.989Z,29.90
2022-08-07T11:53:21.921Z,29.77
2022-08-07T11:54:22.214Z,30.02
2022-08-07T11:56:24.998Z,29.81
2022-08-07T11:56:31.954Z,29.58
2022-08-07T11:57:52.362Z,29.78
2022-08-07T11:58:21.579Z,29.89
2022-08-07T12:00:08.086Z,30.10
2022-08-07T12:00:21.602Z,30.03
2022-08-07T12:01:22.092Z,30.20
2022-08-07T12:02:30.522Z,30.04
2022-08-07T12:03:41.306Z,30.03
2022-08-07T12:04:21.824Z,30.09
2022-08-07T12:05:28.543Z,29.90
2022-08-07T12:06:37.694Z,30.21
2022-08-07T12:07:27.107Z,30.32
2022-08-07T12:08:25.879Z,30.27
2022-08-07T12:09:23.366Z,30.09
2022-08-07T12:10:23.267Z,30.46
2022-08-07T12:11:22.862Z,30.47
2022-08-07T12:12:22.162Z,30.49
2022-08-07T12:13:37.041Z,30.61
2022-08-07T12:14:22.286Z,30.71
2022-08-07T12:15:57.987Z,30.76
2022-08-07T12:16:30.160Z,30.80
2022-08-07T12:17:22.367Z,30.80
2022-08-07T12:18:29.903Z,30.90
2022-08-07T12:19:22.452Z,30.86
2022-08-07T12:20:30.669Z,30.95
2022-08-07T12:22:35.814Z,30.96
2022-08-07T12:22:56.065Z,30.70
2022-08-07T12:24:06.000Z,30.92
2022-08-07T12:24:37.921Z,30.84
2022-08-07T12:26:21.931Z,30.92
2022-08-07T12:26:35.410Z,30.83
2022-08-07T12:27:28.090Z,30.84
2022-08-07T12:28:24.102Z,30.83
2022-08-07T12:29:37.549Z,30.94
2022-08-07T12:30:23.488Z,30.91
2022-08-07T12:31:23.710Z,30.37
2022-08-07T12:32:22.992Z,30.66
2022-08-07T12:33:28.279Z,30.86
2022-08-07T12:34:23.102Z,30.74
2022-08-07T12:35:24.135Z,30.46
2022-08-07T12:36:33.262Z,30.05
2022-08-07T12:37:28.488Z,29.31
2022-08-07T12:38:29.437Z,29.27
2022-08-07T12:39:44.257Z,29.06
2022-08-07T12:40:46.187Z,28.95
2022-08-07T12:41:23.447Z,29.62
2022-08-07T12:42:27.870Z,29.54
2022-08-07T12:44:02.703Z,29.28
2022-08-07T12:44:23.548Z,29.78
2022-08-07T12:45:23.565Z,29.91
2022-08-07T12:46:26.234Z,29.91
2022-08-07T12:47:30.447Z,30.00
2022-08-07T12:48:27.875Z,30.17
2022-08-07T12:49:39.784Z,30.22
2022-08-07T12:50:33.713Z,30.35
2022-08-07T12:51:23.837Z,29.50
2022-08-07T12:52:23.844Z,29.48
2022-08-07T12:53:23.898Z,28.81
2022-08-07T12:54:38.460Z,28.54
2022-08-07T12:55:40.517Z,28.76